Terminal Aerodrome Forecast
Issued by NWS

Home | Current Version | Previous Version | Graphics & Text | Print | Product List | Glossary On
Versions: 1 2 3 4 5 6 7 8 9 10 11 12 13 14 15 16 17 18 19 20 21 22 23 24 25 26
000
FTUS43 KMPX 261100
TAFAXN
TAF
KAXN 261135Z 2612/2712 02011KT P6SM SCT008 OVC020
      TEMPO 2612/2614 5SM -SN
     FM261500 36013KT P6SM BKN025 BKN080
     FM261800 34014KT P6SM SCT035 BKN080
     FM270000 34008KT P6SM SKC=

USA.gov is the U.S. government's official web portal to all federal, state and local government web resources and services.